createdAt,value
2022-12-26T00:01:25.105Z,100.00
2022-12-26T00:03:53.939Z,100.00
2022-12-26T00:06:24.484Z,100.00
2022-12-26T00:08:52.988Z,100.00
2022-12-26T00:11:21.318Z,100.00
2022-12-26T00:13:49.028Z,100.00
2022-12-26T00:16:19.444Z,100.00
2022-12-26T00:18:48.138Z,100.00
2022-12-26T00:21:17.558Z,100.00
2022-12-26T00:23:45.708Z,100.00
2022-12-26T00:26:20.381Z,100.00
2022-12-26T00:28:48.698Z,100.00
2022-12-26T00:31:20.256Z,100.00
2022-12-26T00:33:48.768Z,100.00
2022-12-26T00:36:19.307Z,100.00
2022-12-26T00:38:47.907Z,100.00
2022-12-26T00:41:17.117Z,100.00
2022-12-26T00:43:44.883Z,100.00
2022-12-26T00:46:12.645Z,100.00
2022-12-26T00:48:40.351Z,100.00
2022-12-26T00:51:08.387Z,100.00
2022-12-26T00:53:36.419Z,100.00
2022-12-26T00:56:04.822Z,100.00
2022-12-26T00:58:32.494Z,100.00
2022-12-26T01:01:16.996Z,100.00
2022-12-26T01:03:46.040Z,100.00
2022-12-26T01:06:13.971Z,100.00
2022-12-26T01:08:42.167Z,100.00
2022-12-26T01:11:13.328Z,100.00
2022-12-26T01:13:41.065Z,100.00
2022-12-26T01:16:09.349Z,100.00
2022-12-26T01:18:37.205Z,100.00
2022-12-26T01:21:08.844Z,100.00
2022-12-26T01:23:36.874Z,100.00
2022-12-26T01:26:19.170Z,100.00
2022-12-26T01:28:49.931Z,100.00
2022-12-26T01:31:18.621Z,100.00
2022-12-26T01:33:46.607Z,100.00
2022-12-26T01:36:14.768Z,100.00
2022-12-26T01:38:42.469Z,100.00
2022-12-26T01:41:20.989Z,100.00
2022-12-26T01:44:02.576Z,100.00
2022-12-26T01:46:40.004Z,100.00
2022-12-26T01:49:15.037Z,100.00
2022-12-26T01:51:46.257Z,100.00
2022-12-26T01:54:39.736Z,100.00
2022-12-26T01:57:07.833Z,100.00
2022-12-26T01:59:38.023Z,100.00
2022-12-26T02:02:06.691Z,100.00
2022-12-26T02:04:58.906Z,100.00
2022-12-26T02:07:27.860Z,100.00
2022-12-26T02:09:56.002Z,100.00
2022-12-26T02:12:36.140Z,100.00
2022-12-26T02:15:11.267Z,100.00
2022-12-26T02:17:40.457Z,100.00
2022-12-26T02:20:08.532Z,100.00
2022-12-26T02:22:47.398Z,100.00
2022-12-26T02:25:15.004Z,100.00
2022-12-26T02:27:49.243Z,100.00
2022-12-26T02:30:53.420Z,100.00
2022-12-26T02:33:39.851Z,100.00
2022-12-26T02:36:31.891Z,100.00
2022-12-26T02:39:45.587Z,100.00
2022-12-26T02:42:25.645Z,100.00
2022-12-26T02:45:25.015Z,100.00
2022-12-26T02:48:13.529Z,100.00
2022-12-26T02:51:23.344Z,100.00
2022-12-26T02:54:20.490Z,100.00
2022-12-26T02:57:12.926Z,100.00
2022-12-26T03:00:14.079Z,100.00
2022-12-26T03:03:07.018Z,100.00
2022-12-26T03:05:58.560Z,100.00
2022-12-26T03:08:55.128Z,100.00
2022-12-26T03:11:49.927Z,100.00
2022-12-26T03:14:22.366Z,100.00
2022-12-26T03:17:15.448Z,100.00
2022-12-26T03:20:00.430Z,100.00
2022-12-26T03:22:43.576Z,100.00
2022-12-26T03:25:40.016Z,100.00
2022-12-26T03:28:07.785Z,100.00
2022-12-26T03:30:51.113Z,100.00
2022-12-26T03:33:49.333Z,100.00
2022-12-26T03:36:51.286Z,100.00
2022-12-26T03:40:23.500Z,100.00
2022-12-26T03:43:35.198Z,100.00
2022-12-26T03:46:35.654Z,100.00
2022-12-26T03:49:36.290Z,100.00
2022-12-26T03:52:44.254Z,100.00
2022-12-26T03:55:38.876Z,100.00
2022-12-26T03:58:42.741Z,100.00
2022-12-26T04:01:35.887Z,100.00
2022-12-26T04:04:25.303Z,100.00
2022-12-26T04:07:17.974Z,100.00
2022-12-26T04:10:19.717Z,100.00
2022-12-26T04:13:09.056Z,100.00
2022-12-26T04:16:10.049Z,100.00
2022-12-26T04:19:04.963Z,100.00
2022-12-26T04:21:55.294Z,100.00
2022-12-26T04:24:48.778Z,100.00
2022-12-26T04:27:38.877Z,100.00
2022-12-26T04:30:25.745Z,100.00
2022-12-26T04:33:17.031Z,100.00
2022-12-26T04:36:15.507Z,100.00
2022-12-26T04:39:07.480Z,100.00
2022-12-26T04:41:54.969Z,100.00
2022-12-26T04:44:26.606Z,100.00
2022-12-26T04:46:57.185Z,100.00
2022-12-26T04:49:43.822Z,100.00
2022-12-26T04:52:14.778Z,100.00
2022-12-26T04:54:43.344Z,100.00
2022-12-26T04:57:12.700Z,100.00
2022-12-26T04:59:40.404Z,100.00
2022-12-26T05:02:26.712Z,100.00
2022-12-26T05:05:13.070Z,100.00
2022-12-26T05:07:59.584Z,100.00
2022-12-26T05:10:29.099Z,100.00
2022-12-26T05:12:57.179Z,100.00
2022-12-26T05:15:25.374Z,100.00
2022-12-26T05:18:11.604Z,100.00
2022-12-26T05:20:59.675Z,100.00
2022-12-26T05:23:48.099Z,100.00
2022-12-26T05:26:38.734Z,100.00
2022-12-26T05:29:06.619Z,100.00
2022-12-26T05:31:36.629Z,100.00
2022-12-26T05:34:13.880Z,100.00
2022-12-26T05:37:00.381Z,100.00
2022-12-26T05:39:28.038Z,100.00
2022-12-26T05:41:55.915Z,100.00
2022-12-26T05:44:23.681Z,100.00
2022-12-26T05:46:51.425Z,100.00
2022-12-26T05:49:19.142Z,100.00
2022-12-26T05:51:46.796Z,100.00
2022-12-26T05:54:14.496Z,100.00
2022-12-26T05:56:49.023Z,100.00
2022-12-26T05:59:16.990Z,100.00
2022-12-26T06:01:44.799Z,100.00
2022-12-26T06:04:12.613Z,100.00
2022-12-26T06:06:40.238Z,100.00
2022-12-26T06:09:07.912Z,100.00
2022-12-26T06:11:35.626Z,100.00
2022-12-26T06:14:03.306Z,100.00
2022-12-26T06:16:30.975Z,100.00
2022-12-26T06:18:58.674Z,100.00
2022-12-26T06:21:26.557Z,100.00
2022-12-26T06:23:54.357Z,100.00
2022-12-26T06:26:22.307Z,100.00
2022-12-26T06:28:49.960Z,100.00
2022-12-26T06:31:22.485Z,100.00
2022-12-26T06:33:52.401Z,100.00
2022-12-26T06:36:23.036Z,100.00
2022-12-26T06:38:51.446Z,100.00
2022-12-26T06:41:20.909Z,100.00
2022-12-26T06:43:49.156Z,100.00
2022-12-26T06:46:20.031Z,100.00
2022-12-26T06:48:48.111Z,100.00
2022-12-26T06:51:18.565Z,100.00
2022-12-26T06:53:46.753Z,100.00
2022-12-26T06:56:20.537Z,100.00
2022-12-26T06:58:48.611Z,100.00
2022-12-26T07:01:19.352Z,100.00
2022-12-26T07:03:51.594Z,100.00
2022-12-26T07:06:27.541Z,100.00
2022-12-26T07:09:01.391Z,100.00
2022-12-26T07:11:32.684Z,100.00
2022-12-26T07:14:00.893Z,100.00
2022-12-26T07:16:29.261Z,100.00
2022-12-26T07:18:58.524Z,100.00
2022-12-26T07:21:27.436Z,100.00
2022-12-26T07:23:56.246Z,100.00
2022-12-26T07:26:25.433Z,100.00
2022-12-26T07:28:57.384Z,100.00
2022-12-26T07:31:26.079Z,100.00
2022-12-26T07:33:56.311Z,100.00
2022-12-26T07:36:26.139Z,100.00
2022-12-26T07:38:53.896Z,100.00
2022-12-26T07:41:40.187Z,100.00
2022-12-26T07:44:08.245Z,100.00
2022-12-26T07:46:36.061Z,100.00
2022-12-26T07:49:04.779Z,100.00
2022-12-26T07:51:32.643Z,100.00
2022-12-26T07:54:02.300Z,100.00
2022-12-26T07:56:33.861Z,100.00
2022-12-26T07:59:01.833Z,100.00
2022-12-26T08:01:29.575Z,100.00
2022-12-26T08:03:57.503Z,100.00
2022-12-26T08:06:25.402Z,100.00
2022-12-26T08:08:53.546Z,100.00
2022-12-26T08:11:24.579Z,100.00
2022-12-26T08:13:53.506Z,100.00
2022-12-26T08:16:21.632Z,100.00
2022-12-26T08:18:49.398Z,100.00
2022-12-26T08:21:17.486Z,100.00
2022-12-26T08:23:45.409Z,100.00
2022-12-26T08:26:14.319Z,100.00
2022-12-26T08:28:42.060Z,100.00
2022-12-26T08:31:11.544Z,100.00
2022-12-26T08:33:39.393Z,100.00
2022-12-26T08:36:10.071Z,100.00
2022-12-26T08:38:38.552Z,100.00
2022-12-26T08:41:06.624Z,100.00
2022-12-26T08:44:03.624Z,100.00
2022-12-26T08:46:23.430Z,100.00
2022-12-26T08:48:51.934Z,100.00
2022-12-26T08:51:22.725Z,100.00
2022-12-26T08:53:51.945Z,100.00
2022-12-26T08:56:24.131Z,100.00
2022-12-26T08:58:52.125Z,100.00
2022-12-26T09:01:26.629Z,100.00
2022-12-26T09:03:59.438Z,100.00
2022-12-26T09:06:27.641Z,100.00
2022-12-26T09:08:55.540Z,100.00
2022-12-26T09:11:29.007Z,100.00
2022-12-26T09:13:58.680Z,100.00
2022-12-26T09:16:35.542Z,100.00
2022-12-26T09:19:06.629Z,100.00
2022-12-26T09:21:34.760Z,100.00
2022-12-26T09:24:05.051Z,100.00
2022-12-26T09:26:33.188Z,100.00
2022-12-26T09:29:01.020Z,100.00
2022-12-26T09:31:34.286Z,100.00
2022-12-26T09:34:06.643Z,100.00
2022-12-26T09:36:38.999Z,100.00
2022-12-26T09:39:07.488Z,100.00
2022-12-26T09:41:47.199Z,100.00
2022-12-26T09:44:39.320Z,100.00
2022-12-26T09:47:13.051Z,100.00
2022-12-26T09:49:53.280Z,100.00
2022-12-26T09:52:28.495Z,100.00
2022-12-26T09:55:01.968Z,100.00
2022-12-26T09:57:52.050Z,100.00
2022-12-26T10:00:29.227Z,100.00
2022-12-26T10:02:59.996Z,100.00
2022-12-26T10:05:35.759Z,100.00
2022-12-26T10:08:45.076Z,100.00
2022-12-26T10:11:39.164Z,100.00
2022-12-26T10:14:22.003Z,100.00
2022-12-26T10:17:17.013Z,100.00
2022-12-26T10:20:07.074Z,100.00
2022-12-26T10:23:04.107Z,100.00
2022-12-26T10:25:44.873Z,100.00
2022-12-26T10:28:29.353Z,100.00
2022-12-26T10:31:01.015Z,100.00
2022-12-26T10:33:43.632Z,100.00
2022-12-26T10:36:23.080Z,100.00
2022-12-26T10:38:53.639Z,100.00
2022-12-26T10:41:44.616Z,100.00
2022-12-26T10:44:17.019Z,100.00
2022-12-26T10:46:50.906Z,100.00
2022-12-26T10:49:22.053Z,100.00
2022-12-26T10:51:51.644Z,100.00
2022-12-26T10:54:21.283Z,100.00
2022-12-26T10:56:51.355Z,100.00
2022-12-26T10:59:23.462Z,100.00
2022-12-26T11:01:51.621Z,100.00
2022-12-26T11:07:12.493Z,100.00
2022-12-26T11:09:46.744Z,100.00
2022-12-26T11:12:23.055Z,100.00
2022-12-26T11:14:57.672Z,100.00
2022-12-26T11:17:31.898Z,100.00
2022-12-26T11:20:17.711Z,100.00
2022-12-26T11:22:47.059Z,100.00
2022-12-26T11:25:24.341Z,100.00
2022-12-26T11:27:55.823Z,100.00
2022-12-26T11:30:38.204Z,100.00
2022-12-26T11:33:44.188Z,100.00
2022-12-26T11:36:19.936Z,100.00
2022-12-26T11:38:56.438Z,100.00
2022-12-26T11:41:33.303Z,100.00
2022-12-26T11:44:22.635Z,100.00
2022-12-26T11:47:08.743Z,100.00
2022-12-26T11:49:39.433Z,100.00
2022-12-26T11:52:35.039Z,100.00
2022-12-26T11:55:03.191Z,100.00
2022-12-26T11:57:34.696Z,100.00
2022-12-26T12:00:23.206Z,100.00
2022-12-26T12:02:51.499Z,100.00
2022-12-26T12:05:41.049Z,100.00
2022-12-26T12:08:17.585Z,100.00
2022-12-26T12:10:52.332Z,100.00
2022-12-26T12:13:20.029Z,100.00
2022-12-26T12:16:32.307Z,100.00
2022-12-26T12:19:21.761Z,100.00
2022-12-26T12:22:04.360Z,100.00
2022-12-26T12:24:56.132Z,100.00
2022-12-26T12:27:49.730Z,100.00
2022-12-26T12:30:35.123Z,100.00
2022-12-26T12:33:19.585Z,100.00
2022-12-26T12:36:20.783Z,100.00
2022-12-26T12:38:57.449Z,100.00
2022-12-26T12:41:43.673Z,100.00
2022-12-26T12:44:16.373Z,100.00
2022-12-26T12:47:16.059Z,100.00
2022-12-26T12:50:25.129Z,100.00
2022-12-26T12:53:20.940Z,100.00
2022-12-26T12:55:57.968Z,100.00
2022-12-26T12:58:44.124Z,100.00
2022-12-26T13:01:17.107Z,100.00
2022-12-26T13:03:55.563Z,100.00
2022-12-26T13:06:30.617Z,100.00
2022-12-26T13:09:03.967Z,100.00
2022-12-26T13:11:37.505Z,100.00
2022-12-26T13:14:26.057Z,100.00
2022-12-26T13:17:02.533Z,100.00
2022-12-26T13:19:41.724Z,100.00
2022-12-26T13:22:28.934Z,100.00
2022-12-26T13:25:03.571Z,100.00
2022-12-26T13:27:39.197Z,100.00
2022-12-26T13:30:18.578Z,100.00
2022-12-26T13:32:47.021Z,100.00
2022-12-26T13:35:48.668Z,100.00
2022-12-26T13:38:16.723Z,100.00
2022-12-26T13:41:23.586Z,100.00
2022-12-26T13:44:21.636Z,100.00
2022-12-26T13:46:49.183Z,100.00
2022-12-26T13:49:38.401Z,100.00
2022-12-26T13:52:12.127Z,100.00
2022-12-26T13:55:08.671Z,100.00
2022-12-26T13:57:38.550Z,100.00
2022-12-26T14:00:15.469Z,100.00
2022-12-26T14:03:20.514Z,100.00
2022-12-26T14:06:15.191Z,100.00
2022-12-26T14:09:11.733Z,100.00
2022-12-26T14:12:30.525Z,100.00
2022-12-26T14:15:09.995Z,100.00
2022-12-26T14:18:09.598Z,100.00
2022-12-26T14:20:58.720Z,100.00
2022-12-26T14:24:06.895Z,100.00
2022-12-26T14:26:57.355Z,100.00
2022-12-26T14:30:01.399Z,100.00
2022-12-26T14:32:41.336Z,100.00
2022-12-26T14:35:33.203Z,100.00
2022-12-26T14:38:19.228Z,100.00
2022-12-26T14:41:01.260Z,100.00
2022-12-26T14:43:40.293Z,100.00
2022-12-26T14:46:33.662Z,100.00
2022-12-26T14:49:38.448Z,100.00
2022-12-26T14:52:24.840Z,100.00
2022-12-26T14:54:54.458Z,100.00
2022-12-26T14:57:46.863Z,100.00
2022-12-26T15:00:28.730Z,100.00
2022-12-26T15:02:59.219Z,100.00
2022-12-26T15:05:41.437Z,100.00
2022-12-26T15:08:44.428Z,100.00
2022-12-26T15:11:30.872Z,100.00
2022-12-26T15:14:11.971Z,100.00
2022-12-26T15:16:45.727Z,100.00
2022-12-26T15:19:34.803Z,100.00
2022-12-26T15:22:08.429Z,100.00
2022-12-26T15:28:01.806Z,100.00
2022-12-26T15:30:47.855Z,100.00
2022-12-26T15:33:36.368Z,100.00
2022-12-26T15:36:24.880Z,100.00
2022-12-26T15:39:30.134Z,100.00
2022-12-26T15:42:32.994Z,100.00
2022-12-26T15:45:20.531Z,100.00
2022-12-26T15:48:04.653Z,100.00
2022-12-26T15:51:13.650Z,100.00
2022-12-26T15:53:53.507Z,100.00
2022-12-26T15:56:52.369Z,100.00
2022-12-26T15:59:22.958Z,100.00
2022-12-26T16:01:54.400Z,100.00
2022-12-26T16:04:34.007Z,100.00
2022-12-26T16:07:09.567Z,100.00
2022-12-26T16:09:55.838Z,100.00
2022-12-26T16:12:28.719Z,100.00
2022-12-26T16:15:11.313Z,100.00
2022-12-26T16:17:40.499Z,100.00
2022-12-26T16:20:19.201Z,100.00
2022-12-26T16:22:50.178Z,100.00
2022-12-26T16:25:25.062Z,100.00
2022-12-26T16:27:57.621Z,100.00
2022-12-26T16:30:28.968Z,100.00
2022-12-26T16:32:57.203Z,100.00
2022-12-26T16:35:33.484Z,100.00
2022-12-26T16:38:03.716Z,100.00
2022-12-26T16:40:36.171Z,100.00
2022-12-26T16:43:28.151Z,100.00
2022-12-26T16:46:08.048Z,100.00
2022-12-26T16:48:37.845Z,100.00
2022-12-26T16:51:09.073Z,100.00
2022-12-26T16:53:36.631Z,100.00
2022-12-26T16:56:28.348Z,100.00
2022-12-26T16:59:17.833Z,100.00
2022-12-26T17:01:52.387Z,100.00
2022-12-26T17:04:25.346Z,100.00
2022-12-26T17:07:03.516Z,100.00
2022-12-26T17:09:39.501Z,100.00
2022-12-26T17:12:09.727Z,100.00
2022-12-26T17:14:43.895Z,100.00
2022-12-26T17:17:33.673Z,100.00
2022-12-26T17:20:23.985Z,100.00
2022-12-26T17:22:55.783Z,100.00
2022-12-26T17:25:31.476Z,100.00
2022-12-26T17:28:16.310Z,100.00
2022-12-26T17:30:46.519Z,100.00
2022-12-26T17:33:18.767Z,100.00
2022-12-26T17:38:47.129Z,100.00
2022-12-26T17:41:18.426Z,100.00
2022-12-26T17:43:47.777Z,100.00
2022-12-26T17:46:19.179Z,100.00
2022-12-26T17:48:47.061Z,100.00
2022-12-26T17:51:19.867Z,100.00
2022-12-26T17:53:52.444Z,100.00
2022-12-26T17:56:24.493Z,100.00
2022-12-26T17:58:52.223Z,100.00
2022-12-26T18:01:22.301Z,100.00
2022-12-26T18:03:50.945Z,100.00
2022-12-26T18:06:19.115Z,100.00
2022-12-26T18:08:46.976Z,100.00
2022-12-26T18:11:15.318Z,100.00
2022-12-26T18:13:44.136Z,100.00
2022-12-26T18:16:17.842Z,100.00
2022-12-26T18:18:47.441Z,100.00
2022-12-26T18:21:17.170Z,100.00
2022-12-26T18:23:45.516Z,100.00
2022-12-26T18:26:32.408Z,100.00
2022-12-26T18:29:00.544Z,100.00
2022-12-26T18:31:29.308Z,100.00
2022-12-26T18:33:57.174Z,100.00
2022-12-26T18:36:34.208Z,100.00
2022-12-26T18:39:02.248Z,100.00
2022-12-26T18:41:30.050Z,100.00
2022-12-26T18:43:59.272Z,100.00
2022-12-26T18:46:28.704Z,100.00
2022-12-26T18:48:57.832Z,100.00
2022-12-26T18:51:26.984Z,100.00
2022-12-26T18:53:55.328Z,100.00
2022-12-26T18:56:24.176Z,100.00
2022-12-26T18:58:57.871Z,100.00
2022-12-26T19:01:26.553Z,100.00
2022-12-26T19:03:55.100Z,99.72
2022-12-26T19:06:26.069Z,98.46
2022-12-26T19:08:53.965Z,97.29
2022-12-26T19:11:22.252Z,98.36
2022-12-26T19:13:50.150Z,98.16
2022-12-26T19:16:17.908Z,97.10
2022-12-26T19:18:45.855Z,96.05
2022-12-26T19:21:15.434Z,93.97
2022-12-26T19:23:47.485Z,94.81
2022-12-26T19:26:19.684Z,94.79
2022-12-26T19:28:55.919Z,92.74
2022-12-26T19:31:24.706Z,93.48
2022-12-26T19:33:52.469Z,92.66
2022-12-26T19:36:20.197Z,92.41
2022-12-26T19:38:47.839Z,92.45
2022-12-26T19:41:16.165Z,92.25
2022-12-26T19:43:44.148Z,91.95
2022-12-26T19:46:14.036Z,91.40
2022-12-26T19:48:42.152Z,89.03
2022-12-26T19:51:12.780Z,89.98
2022-12-26T19:53:41.684Z,89.03
2022-12-26T19:56:11.074Z,88.71
2022-12-26T19:58:39.458Z,88.28
2022-12-26T20:01:33.500Z,87.44
2022-12-26T20:04:04.001Z,88.29
2022-12-26T20:06:34.269Z,88.28
2022-12-26T20:09:04.964Z,87.90
2022-12-26T20:11:35.532Z,88.28
2022-12-26T20:14:04.848Z,86.60
2022-12-26T20:19:21.532Z,86.22
2022-12-26T20:21:49.481Z,85.63
2022-12-26T20:24:17.774Z,86.47
2022-12-26T20:26:45.608Z,86.29
2022-12-26T20:29:13.356Z,85.17
2022-12-26T20:31:41.498Z,85.16
2022-12-26T20:34:09.574Z,85.78
2022-12-26T20:36:38.503Z,84.98
2022-12-26T20:39:09.416Z,85.13
2022-12-26T20:41:37.442Z,85.11
2022-12-26T20:44:05.193Z,85.61
2022-12-26T20:46:34.670Z,85.36
2022-12-26T20:49:03.701Z,86.07
2022-12-26T20:51:37.706Z,86.54
2022-12-26T20:54:07.218Z,86.96
2022-12-26T20:56:36.052Z,87.41
2022-12-26T20:59:04.388Z,87.67
2022-12-26T21:01:32.256Z,88.52
2022-12-26T21:04:00.397Z,87.40
2022-12-26T21:06:37.165Z,88.25
2022-12-26T21:09:06.362Z,89.11
2022-12-26T21:11:39.091Z,90.28
2022-12-26T21:14:17.612Z,90.78
2022-12-26T21:16:54.523Z,92.94
2022-12-26T21:19:24.887Z,93.70
2022-12-26T21:21:55.044Z,94.22
2022-12-26T21:24:29.092Z,95.57
2022-12-26T21:26:57.182Z,95.57
2022-12-26T21:29:30.927Z,96.45
2022-12-26T21:31:59.216Z,96.82
2022-12-26T21:34:29.486Z,97.64
2022-12-26T21:37:16.978Z,98.44
2022-12-26T21:39:45.681Z,99.15
2022-12-26T21:42:13.358Z,98.82
2022-12-26T21:44:41.083Z,99.81
2022-12-26T21:47:11.764Z,99.66
2022-12-26T21:49:39.501Z,99.49
2022-12-26T21:52:08.107Z,99.34
2022-12-26T21:54:54.377Z,99.10
2022-12-26T21:57:23.048Z,98.86
2022-12-26T22:00:00.223Z,98.75
2022-12-26T22:02:54.900Z,98.44
2022-12-26T22:05:28.395Z,98.27
2022-12-26T22:07:58.831Z,98.06
2022-12-26T22:10:49.446Z,97.98
2022-12-26T22:13:17.528Z,97.72
2022-12-26T22:16:06.538Z,97.59
2022-12-26T22:18:40.835Z,97.41
2022-12-26T22:21:18.820Z,97.40
2022-12-26T22:23:46.844Z,97.46
2022-12-26T22:26:16.201Z,97.20
2022-12-26T22:28:44.773Z,97.29
2022-12-26T22:31:31.130Z,97.29
2022-12-26T22:34:13.091Z,97.45
2022-12-26T22:36:42.103Z,97.37
2022-12-26T22:39:14.119Z,97.31
2022-12-26T22:41:42.448Z,97.46
2022-12-26T22:44:10.257Z,97.66
2022-12-26T22:46:38.098Z,97.56
2022-12-26T22:49:05.990Z,97.56
2022-12-26T22:51:34.022Z,97.48
2022-12-26T22:54:02.701Z,97.37
2022-12-26T22:56:31.187Z,97.62
2022-12-26T22:59:04.377Z,97.63
2022-12-26T23:01:32.160Z,97.34
2022-12-26T23:04:02.001Z,97.40
2022-12-26T23:06:32.356Z,97.22
2022-12-26T23:09:02.491Z,96.85
2022-12-26T23:11:35.298Z,96.77
2022-12-26T23:14:08.921Z,96.59
2022-12-26T23:16:53.623Z,96.57
2022-12-26T23:19:52.893Z,96.18
2022-12-26T23:22:20.887Z,96.74
2022-12-26T23:24:48.726Z,96.58
2022-12-26T23:27:34.930Z,96.52
2022-12-26T23:30:21.299Z,96.54
2022-12-26T23:32:53.605Z,96.57
2022-12-26T23:35:22.569Z,96.51
2022-12-26T23:37:50.889Z,96.49
2022-12-26T23:40:20.292Z,96.70
2022-12-26T23:42:48.335Z,96.98
2022-12-26T23:45:17.307Z,97.24
2022-12-26T23:47:47.052Z,97.42
2022-12-26T23:50:16.612Z,97.42
2022-12-26T23:52:45.038Z,97.65
2022-12-26T23:55:13.280Z,97.70
2022-12-26T23:57:41.029Z,97.77
